Time;durP1;ratioP1;P1;durP2;ratioP2;P2;SDS_P1;SDS_P2;PMS_P1;PMS_P2;Temp;Humidity;BMP_temperature;BMP_pressure;BME280_temperature;BME280_humidity;BME280_pressure;Samples;Min_cycle;Max_cycle;Signal;HPM_P1;HPM_P2
2023/09/18 00:01:39;;;;;;;19.52;17.50;;;16.70;99.90;;;;;;4810456;29;20042;-82
2023/09/18 00:04:05;;;;;;;17.55;15.95;;;16.70;99.90;;;;;;4814524;29;20436;-82
2023/09/18 00:06:32;;;;;;;21.42;19.40;;;16.70;99.90;;;;;;4813899;29;20054;-82
2023/09/18 00:08:58;;;;;;;20.98;18.83;;;16.70;99.90;;;;;;4809440;29;20058;-82
2023/09/18 00:11:23;;;;;;;23.92;21.23;;;17.60;99.90;;;;;;4811473;29;20038;-82
2023/09/18 00:13:49;;;;;;;20.80;18.80;;;16.50;99.90;;;;;;4813266;29;20109;-82
2023/09/18 00:16:15;;;;;;;22.27;19.85;;;16.90;99.90;;;;;;4812248;29;20085;-82
2023/09/18 00:18:41;;;;;;;35.38;26.02;;;17.10;99.90;;;;;;4812955;29;20115;-82
2023/09/18 00:21:10;;;;;;;24.83;22.27;;;16.60;99.90;;;;;;4810968;29;20434;-82
2023/09/18 00:23:36;;;;;;;24.55;22.08;;;16.70;99.90;;;;;;4811272;29;20085;-81
2023/09/18 00:26:02;;;;;;;29.17;23.92;;;16.60;99.90;;;;;;4813742;29;20078;-82
2023/09/18 00:28:27;;;;;;;24.85;22.33;;;16.70;99.90;;;;;;4812740;29;20460;-82
2023/09/18 00:30:53;;;;;;;24.63;21.98;;;16.70;99.90;;;;;;4810786;29;20050;-82
2023/09/18 00:33:19;;;;;;;21.90;19.63;;;16.80;99.90;;;;;;4811058;29;20097;-82
2023/09/18 00:35:50;;;;;;;22.85;20.40;;;16.70;99.90;;;;;;4814663;29;20086;-82
2023/09/18 00:38:16;;;;;;;21.40;19.27;;;16.70;99.90;;;;;;4817946;29;20117;-82
2023/09/18 00:40:42;;;;;;;23.05;20.65;;;16.80;99.90;;;;;;4814917;29;20575;-82
2023/09/18 00:43:09;;;;;;;20.58;18.58;;;16.70;99.90;;;;;;4813746;29;20046;-82
2023/09/18 00:45:40;;;;;;;20.70;18.40;;;16.80;99.90;;;;;;4814374;29;20565;-82
2023/09/18 00:48:06;;;;;;;23.60;20.98;;;16.80;99.90;;;;;;4801288;29;20095;-82
2023/09/18 00:50:32;;;;;;;22.10;19.90;;;16.80;99.90;;;;;;4815559;29;20062;-81
2023/09/18 00:52:59;;;;;;;20.65;18.70;;;16.80;99.90;;;;;;4823415;29;20082;-81
2023/09/18 00:55:25;;;;;;;22.10;19.98;;;17.20;99.90;;;;;;4815223;29;20417;-82
2023/09/18 00:57:50;;;;;;;20.55;18.38;;;16.80;99.90;;;;;;4815496;29;20575;-82
2023/09/18 01:00:17;;;;;;;19.23;17.30;;;16.80;99.90;;;;;;4816253;29;20049;-82
2023/09/18 01:02:44;;;;;;;21.42;19.13;;;16.80;99.90;;;;;;4815699;29;20083;-82
2023/09/18 01:05:10;;;;;;;22.73;20.42;;;16.80;99.90;;;;;;4811999;29;20119;-82
2023/09/18 01:07:36;;;;;;;22.15;19.98;;;16.80;99.90;;;;;;4814468;29;20050;-81
2023/09/18 01:10:03;;;;;;;21.25;19.33;;;16.80;99.90;;;;;;4816890;29;20053;-82
2023/09/18 01:12:48;;;;;;;23.58;21.38;;;17.10;99.90;;;;;;4816662;29;20130;-81
2023/09/18 01:15:20;;;;;;;21.67;19.60;;;16.80;99.90;;;;;;4812509;29;20097;-81
2023/09/18 01:17:46;;;;;;;22.95;20.45;;;16.80;99.90;;;;;;4820774;29;20050;-82
2023/09/18 01:20:12;;;;;;;21.48;18.23;;;16.80;99.90;;;;;;4797695;29;20051;-82
2023/09/18 01:22:38;;;;;;;22.67;20.38;;;16.80;99.90;;;;;;4814179;29;20053;-82
2023/09/18 01:25:06;;;;;;;22.30;19.75;;;16.80;99.90;;;;;;4815986;29;20074;-82
2023/09/18 01:27:32;;;;;;;20.38;18.45;;;16.80;99.90;;;;;;4816876;29;20212;-82
2023/09/18 01:29:58;;;;;;;19.58;17.55;;;16.80;99.90;;;;;;4813938;29;20117;-82
2023/09/18 01:32:27;;;;;;;20.23;18.23;;;17.30;99.90;;;;;;4813060;29;20134;-82
2023/09/18 01:34:55;;;;;;;21.88;19.50;;;16.80;99.90;;;;;;4815054;29;20100;-82
2023/09/18 01:37:24;;;;;;;22.65;20.30;;;16.90;99.90;;;;;;4816085;29;20058;-82
2023/09/18 01:39:51;;;;;;;30.75;24.13;;;16.80;99.90;;;;;;4813997;29;20126;-82
2023/09/18 01:42:17;;;;;;;21.52;19.33;;;16.90;99.90;;;;;;4813639;29;20514;-82
2023/09/18 01:44:43;;;;;;;21.95;19.75;;;16.90;99.90;;;;;;4813781;29;20054;-82
2023/09/18 01:47:15;;;;;;;22.48;19.75;;;16.90;99.90;;;;;;4799585;29;20094;-82
2023/09/18 01:49:42;;;;;;;21.10;19.00;;;16.90;99.90;;;;;;4816137;29;20051;-82
2023/09/18 01:52:09;;;;;;;23.92;21.48;;;16.80;99.90;;;;;;4814096;29;20054;-82
2023/09/18 01:54:35;;;;;;;24.60;22.17;;;16.90;99.90;;;;;;4813055;29;20408;-82
2023/09/18 01:57:02;;;;;;;26.33;23.52;;;16.80;99.90;;;;;;4814956;29;20047;-82
2023/09/18 01:59:28;;;;;;;29.75;25.88;;;16.80;99.90;;;;;;4816343;29;20050;-82
2023/09/18 02:01:54;;;;;;;26.40;23.35;;;16.80;99.90;;;;;;4812222;29;20054;-82
2023/09/18 02:04:20;;;;;;;30.20;24.50;;;17.30;99.90;;;;;;4813082;29;20031;-82
2023/09/18 02:06:47;;;;;;;25.90;23.35;;;16.90;99.90;;;;;;4812998;29;20049;-82
2023/09/18 02:09:13;;;;;;;27.67;24.77;;;16.90;99.90;;;;;;4816503;29;20047;-82
2023/09/18 02:11:43;;;;;;;34.45;29.35;;;16.80;99.90;;;;;;4814874;29;20207;-82
2023/09/18 02:14:09;;;;;;;33.20;29.23;;;16.80;99.90;;;;;;4811876;29;20566;-82
2023/09/18 02:16:37;;;;;;;27.88;25.00;;;16.90;99.90;;;;;;4812882;29;20393;-82
2023/09/18 02:19:03;;;;;;;36.85;27.67;;;16.90;99.90;;;;;;4814493;29;20042;-81
2023/09/18 02:21:30;;;;;;;32.65;29.05;;;16.90;99.90;;;;;;4814349;29;20061;-82
2023/09/18 02:23:55;;;;;;;30.48;27.30;;;16.90;99.90;;;;;;4812626;29;20104;-82
2023/09/18 02:26:23;;;;;;;30.08;27.00;;;16.90;99.90;;;;;;4813136;29;20228;-82
2023/09/18 02:28:49;;;;;;;45.03;35.15;;;16.90;99.90;;;;;;4811476;29;20051;-82
2023/09/18 02:31:15;;;;;;;34.15;30.27;;;16.90;99.90;;;;;;4814737;29;20046;-82
2023/09/18 02:33:41;;;;;;;33.25;29.80;;;16.90;99.90;;;;;;4799774;29;20087;-82
2023/09/18 02:36:07;;;;;;;35.30;28.55;;;17.80;99.90;;;;;;4796726;29;20043;-81
2023/09/18 02:38:33;;;;;;;32.05;28.80;;;16.90;99.90;;;;;;4812109;29;20058;-81
2023/09/18 02:41:00;;;;;;;31.10;28.13;;;16.90;99.90;;;;;;4814745;29;20112;-82
2023/09/18 02:43:26;;;;;;;33.22;29.83;;;16.90;99.90;;;;;;4814883;29;20460;-82
2023/09/18 02:45:52;;;;;;;36.95;32.95;;;16.90;99.90;;;;;;4812760;29;20142;-82
2023/09/18 02:48:18;;;;;;;32.15;28.85;;;16.90;99.90;;;;;;4811271;29;20505;-82
2023/09/18 02:50:44;;;;;;;42.33;32.25;;;16.90;99.90;;;;;;4811947;29;20496;-82
2023/09/18 02:53:22;;;;;;;38.72;32.47;;;16.90;99.90;;;;;;4814156;29;20053;-81
2023/09/18 02:55:51;;;;;;;32.40;28.45;;;16.90;99.90;;;;;;4814166;29;20091;-82
2023/09/18 02:58:19;;;;;;;32.38;28.15;;;16.90;99.90;;;;;;4811690;29;20051;-82
2023/09/18 03:00:45;;;;;;;29.95;26.98;;;16.90;99.90;;;;;;4812264;29;20134;-82
2023/09/18 03:03:11;;;;;;;32.33;27.90;;;17.60;99.90;;;;;;4813496;29;20043;-82
2023/09/18 03:05:38;;;;;;;30.13;27.00;;;17.60;99.90;;;;;;4815050;29;20046;-82
2023/09/18 03:08:04;;;;;;;31.38;28.33;;;16.90;99.90;;;;;;4796392;29;20161;-82
2023/09/18 03:10:37;;;;;;;28.63;25.60;;;16.90;99.90;;;;;;4811716;29;20061;-82
2023/09/18 03:13:04;;;;;;;28.70;25.60;;;16.90;99.90;;;;;;4814387;29;20058;-82
2023/09/18 03:15:30;;;;;;;31.27;27.90;;;16.90;99.90;;;;;;4815276;29;20055;-81
2023/09/18 03:17:57;;;;;;;29.33;26.23;;;16.90;99.90;;;;;;4813005;29;20047;-82
2023/09/18 03:20:27;;;;;;;30.95;27.63;;;16.90;99.90;;;;;;4812091;29;20055;-82
2023/09/18 03:22:55;;;;;;;30.38;27.33;;;17.00;99.90;;;;;;4812249;29;20055;-82
2023/09/18 03:25:21;;;;;;;29.95;25.27;;;16.90;99.90;;;;;;4813143;29;20050;-81
2023/09/18 03:27:47;;;;;;;30.88;27.65;;;16.90;99.90;;;;;;4813377;29;20361;-81
2023/09/18 03:30:15;;;;;;;30.42;26.77;;;16.90;99.90;;;;;;4812065;29;20539;-82
2023/09/18 03:32:42;;;;;;;28.73;25.73;;;16.90;99.90;;;;;;4809619;29;20134;-82
2023/09/18 03:35:15;;;;;;;28.15;25.15;;;16.90;99.90;;;;;;4797894;29;20102;-82
2023/09/18 03:37:41;;;;;;;28.45;24.48;;;17.00;99.90;;;;;;4813610;29;20054;-82
2023/09/18 03:40:08;;;;;;;28.27;24.23;;;17.00;99.90;;;;;;4811276;29;20054;-82
2023/09/18 03:42:34;;;;;;;28.73;25.77;;;16.90;99.90;;;;;;4810488;29;20051;-82
2023/09/18 03:45:00;;;;;;;24.98;22.52;;;17.00;99.90;;;;;;4796461;29;20637;-82
2023/09/18 03:47:25;;;;;;;22.63;20.38;;;17.00;99.90;;;;;;4814260;29;20038;-82
2023/09/18 03:49:51;;;;;;;26.13;23.52;;;16.90;99.90;;;;;;4812840;29;20133;-82
2023/09/18 03:52:17;;;;;;;28.25;22.90;;;16.90;99.90;;;;;;4811052;29;20477;-81
2023/09/18 03:54:42;;;;;;;25.48;22.75;;;16.90;99.90;;;;;;4811083;29;20051;-82
2023/09/18 03:57:08;;;;;;;27.17;24.42;;;16.90;99.90;;;;;;4797422;29;20046;-82
2023/09/18 03:59:34;;;;;;;23.80;21.48;;;16.90;99.90;;;;;;4813808;29;20046;-81
2023/09/18 04:02:00;;;;;;;22.50;20.33;;;17.00;99.90;;;;;;4814087;29;20058;-82
2023/09/18 04:04:26;;;;;;;22.10;19.80;;;17.10;99.90;;;;;;4811946;29;20400;-81
2023/09/18 04:06:51;;;;;;;25.95;23.33;;;16.90;99.90;;;;;;4810223;29;20536;-82
2023/09/18 04:09:17;;;;;;;24.90;21.75;;;16.90;99.90;;;;;;4814501;29;20043;-82
2023/09/18 04:11:43;;;;;;;25.20;22.67;;;16.90;99.90;;;;;;4814912;29;20095;-82
2023/09/18 04:14:09;;;;;;;23.77;21.35;;;17.10;99.90;;;;;;4812371;29;20453;-82
2023/09/18 04:16:35;;;;;;;22.60;20.40;;;17.00;99.90;;;;;;4811947;29;20454;-82
2023/09/18 04:19:01;;;;;;;22.55;20.13;;;16.90;99.90;;;;;;4812829;29;20055;-82
2023/09/18 04:21:29;;;;;;;24.05;20.13;;;17.00;99.90;;;;;;4814338;29;20053;-82
2023/09/18 04:23:57;;;;;;;20.58;18.60;;;17.00;99.90;;;;;;4813447;29;20054;-81
2023/09/18 04:26:23;;;;;;;21.02;18.98;;;17.00;99.90;;;;;;4810557;29;20416;-82
2023/09/18 04:28:48;;;;;;;23.10;20.20;;;17.00;99.90;;;;;;4809259;29;20046;-82
2023/09/18 04:31:14;;;;;;;23.55;18.73;;;17.00;99.90;;;;;;4814080;29;20046;-82
2023/09/18 04:33:40;;;;;;;20.65;18.63;;;17.10;99.90;;;;;;4814094;29;20440;-82
2023/09/18 04:36:05;;;;;;;23.23;20.65;;;17.00;99.90;;;;;;4811647;29;20547;-82
2023/09/18 04:38:31;;;;;;;23.42;19.85;;;17.00;99.90;;;;;;4825053;29;20051;-82
2023/09/18 04:41:00;;;;;;;20.38;18.08;;;17.00;99.90;;;;;;4811555;29;20047;-82
2023/09/18 04:43:26;;;;;;;23.25;18.50;;;17.00;99.90;;;;;;4812676;29;20051;-82
2023/09/18 04:45:52;;;;;;;23.58;19.75;;;17.00;99.90;;;;;;4812449;29;20115;-82
2023/09/18 04:48:17;;;;;;;18.85;16.90;;;17.30;99.90;;;;;;4818781;29;20126;-81
2023/09/18 04:50:43;;;;;;;17.42;15.73;;;17.10;99.90;;;;;;4809216;29;20065;-82
2023/09/18 04:53:09;;;;;;;19.05;17.23;;;17.10;99.90;;;;;;4811556;29;20614;-82
2023/09/18 04:55:34;;;;;;;18.90;16.90;;;17.10;99.90;;;;;;4813020;29;20501;-82
2023/09/18 04:58:00;;;;;;;17.70;15.95;;;17.10;99.90;;;;;;4813140;29;20106;-82
2023/09/18 05:00:28;;;;;;;17.92;16.08;;;17.10;99.90;;;;;;4809734;29;20139;-81
2023/09/18 05:02:54;;;;;;;20.50;16.42;;;17.10;99.90;;;;;;4810179;29;20061;-81
2023/09/18 05:05:19;;;;;;;18.27;16.50;;;17.10;99.90;;;;;;4814104;29;20042;-81
2023/09/18 05:07:45;;;;;;;18.20;16.40;;;17.10;99.90;;;;;;4814024;29;20392;-82
2023/09/18 05:10:11;;;;;;;18.35;16.67;;;17.20;99.90;;;;;;4811350;29;20046;-82
2023/09/18 05:12:40;;;;;;;20.88;17.67;;;17.20;99.90;;;;;;4810886;29;20439;-82
2023/09/18 05:15:06;;;;;;;17.58;15.63;;;17.20;99.90;;;;;;4811247;29;20062;-82
2023/09/18 05:17:51;;;;;;;16.35;14.75;;;17.20;99.90;;;;;;4809333;29;20093;-81
2023/09/18 05:20:18;;;;;;;19.50;15.23;;;17.20;99.90;;;;;;4814310;29;20175;-81
2023/09/18 05:22:44;;;;;;;18.05;15.52;;;17.20;99.90;;;;;;4816168;29;20054;-82
2023/09/18 05:25:10;;;;;;;19.33;15.85;;;17.30;99.90;;;;;;4814340;29;20093;-81
2023/09/18 05:27:56;;;;;;;15.85;14.15;;;17.20;99.90;;;;;;4813860;29;20046;-81
2023/09/18 05:30:32;;;;;;;19.70;14.43;;;17.20;99.90;;;;;;4817127;29;20054;-81
2023/09/18 05:33:05;;;;;;;16.65;14.80;;;17.20;99.90;;;;;;4815858;29;20056;-81
2023/09/18 05:35:42;;;;;;;15.02;13.48;;;17.20;99.90;;;;;;4814333;29;20078;-81
2023/09/18 05:38:09;;;;;;;17.13;13.57;;;17.30;99.90;;;;;;4812936;29;20139;-81
2023/09/18 05:40:35;;;;;;;17.27;14.27;;;17.30;99.90;;;;;;4816640;29;20058;-81
2023/09/18 05:43:01;;;;;;;16.33;14.27;;;17.30;99.90;;;;;;4816573;29;20038;-81
2023/09/18 05:45:26;;;;;;;15.00;13.52;;;17.30;99.90;;;;;;4811942;29;20085;-81
2023/09/18 05:48:03;;;;;;;15.52;14.05;;;17.30;99.90;;;;;;4813536;29;20492;-81
2023/09/18 05:50:31;;;;;;;14.50;12.95;;;17.30;99.90;;;;;;4817142;29;20069;-82
2023/09/18 05:53:00;;;;;;;13.48;12.00;;;17.30;99.90;;;;;;4816263;29;20114;-82
2023/09/18 05:55:26;;;;;;;12.38;11.25;;;17.30;99.90;;;;;;4813608;29;20134;-82
2023/09/18 05:57:52;;;;;;;12.27;10.80;;;17.30;99.90;;;;;;4813437;29;20485;-81
2023/09/18 06:00:19;;;;;;;12.63;11.43;;;17.30;99.90;;;;;;4815989;29;20054;-81
2023/09/18 06:02:45;;;;;;;12.95;10.77;;;17.40;99.90;;;;;;4801209;29;20056;-81
2023/09/18 06:05:11;;;;;;;12.63;11.43;;;17.40;99.90;;;;;;4813616;29;20084;-82
2023/09/18 06:07:38;;;;;;;13.48;10.98;;;17.40;99.90;;;;;;4811397;29;20065;-82
2023/09/18 06:10:04;;;;;;;15.75;11.27;;;17.40;99.90;;;;;;4812274;29;20046;-82
2023/09/18 06:12:30;;;;;;;12.93;10.93;;;17.40;99.90;;;;;;4812735;29;20595;-82
2023/09/18 06:14:56;;;;;;;13.90;11.15;;;17.40;99.90;;;;;;4812875;29;20130;-82
2023/09/18 06:17:22;;;;;;;14.60;10.60;;;17.50;99.90;;;;;;4816139;29;20311;-82
2023/09/18 06:19:47;;;;;;;11.27;9.00;;;17.50;99.90;;;;;;4815901;29;20403;-82
2023/09/18 06:22:14;;;;;;;11.73;9.77;;;17.50;99.90;;;;;;4816083;29;20057;-82
2023/09/18 06:24:40;;;;;;;14.80;9.50;;;17.50;99.90;;;;;;4820260;29;20077;-82
2023/09/18 06:27:05;;;;;;;12.57;9.25;;;17.50;99.90;;;;;;4811431;29;20046;-82
2023/09/18 06:29:34;;;;;;;11.35;9.65;;;17.60;99.90;;;;;;4816159;29;20050;-82
2023/09/18 06:32:00;;;;;;;10.10;9.25;;;17.60;99.90;;;;;;4814792;29;20130;-82
2023/09/18 06:34:28;;;;;;;11.48;10.30;;;17.60;99.90;;;;;;4811048;29;20127;-82
2023/09/18 06:36:54;;;;;;;13.52;9.25;;;17.90;99.90;;;;;;4812541;29;20100;-80
2023/09/18 06:39:22;;;;;;;11.85;9.65;;;17.70;99.90;;;;;;4814521;29;20501;-80
2023/09/18 06:41:48;;;;;;;13.07;9.75;;;17.70;99.90;;;;;;4813322;29;20065;-81
2023/09/18 06:44:13;;;;;;;13.43;9.88;;;17.70;99.90;;;;;;4814276;29;20387;-81
2023/09/18 06:46:39;;;;;;;13.32;10.70;;;18.00;99.90;;;;;;4812490;29;20055;-80
2023/09/18 06:49:05;;;;;;;12.85;10.32;;;17.80;99.90;;;;;;4795417;29;20043;-81
2023/09/18 06:51:30;;;;;;;15.48;11.55;;;17.90;99.90;;;;;;4815917;29;20046;-81
2023/09/18 06:53:57;;;;;;;14.25;11.65;;;17.90;99.90;;;;;;4814044;29;20042;-81
2023/09/18 06:56:24;;;;;;;14.70;11.30;;;17.90;99.90;;;;;;4796407;29;20038;-81
2023/09/18 06:58:51;;;;;;;16.05;11.75;;;17.90;99.90;;;;;;4812039;29;20123;-81
2023/09/18 07:01:18;;;;;;;14.65;11.98;;;18.00;99.90;;;;;;4812681;29;20483;-82
2023/09/18 07:03:44;;;;;;;18.65;12.18;;;18.00;99.90;;;;;;4814199;29;20046;-80
2023/09/18 07:06:10;;;;;;;14.60;13.07;;;18.00;99.90;;;;;;4814973;29;20050;-80
2023/09/18 07:08:36;;;;;;;17.45;13.82;;;18.00;99.90;;;;;;4812020;29;20066;-80
2023/09/18 07:11:01;;;;;;;16.10;12.75;;;18.00;99.90;;;;;;4811488;29;20051;-81
2023/09/18 07:13:27;;;;;;;17.15;13.68;;;18.10;99.90;;;;;;4814953;29;20046;-81
2023/09/18 07:15:52;;;;;;;20.58;14.43;;;18.10;99.90;;;;;;4822159;29;20076;-82
2023/09/18 07:18:18;;;;;;;18.40;14.45;;;18.10;99.90;;;;;;4817483;29;20046;-82
2023/09/18 07:20:44;;;;;;;14.90;13.23;;;18.10;99.90;;;;;;4816233;29;20373;-81
2023/09/18 07:23:10;;;;;;;15.52;13.70;;;18.10;99.90;;;;;;4812476;29;20054;-81
2023/09/18 07:25:38;;;;;;;19.95;14.80;;;18.20;99.90;;;;;;4814813;29;20042;-81
2023/09/18 07:28:08;;;;;;;15.15;13.52;;;18.20;99.90;;;;;;4813804;29;20053;-81
2023/09/18 07:30:35;;;;;;;20.60;15.45;;;18.20;99.90;;;;;;4811004;29;20058;-81
2023/09/18 07:33:02;;;;;;;18.00;14.73;;;18.30;99.90;;;;;;4811655;29;20195;-81
2023/09/18 07:35:27;;;;;;;19.23;15.32;;;18.20;99.90;;;;;;4812632;29;20058;-81
2023/09/18 07:37:53;;;;;;;23.08;16.25;;;18.20;99.90;;;;;;4814100;29;20066;-81
2023/09/18 07:40:19;;;;;;;25.17;15.77;;;18.20;99.90;;;;;;4813624;29;20054;-81
2023/09/18 07:42:45;;;;;;;18.48;15.50;;;18.20;99.90;;;;;;4811825;29;20057;-81
2023/09/18 07:45:12;;;;;;;33.30;17.08;;;18.20;99.90;;;;;;4810035;29;20074;-82
2023/09/18 07:47:37;;;;;;;20.73;15.27;;;18.20;99.90;;;;;;4813574;29;20099;-82
2023/09/18 07:50:04;;;;;;;19.85;15.23;;;18.10;99.90;;;;;;4814524;29;20046;-81
2023/09/18 07:52:31;;;;;;;19.85;15.68;;;18.10;99.90;;;;;;4810359;29;20562;-81
2023/09/18 07:54:58;;;;;;;23.55;15.57;;;18.10;99.90;;;;;;4811207;29;20051;-82
2023/09/18 07:57:23;;;;;;;18.95;15.25;;;18.10;99.90;;;;;;4811850;29;20107;-81
2023/09/18 07:59:50;;;;;;;19.45;16.15;;;18.10;99.90;;;;;;4813644;29;20433;-81
2023/09/18 08:02:17;;;;;;;18.15;13.55;;;18.40;99.90;;;;;;4813439;29;20460;-81
2023/09/18 08:04:43;;;;;;;14.80;12.57;;;18.10;99.90;;;;;;4810818;29;20397;-81
2023/09/18 08:07:09;;;;;;;13.82;12.20;;;18.10;99.90;;;;;;4810849;29;20077;-81
2023/09/18 08:09:38;;;;;;;20.05;13.68;;;18.10;99.90;;;;;;4797565;29;20077;-81
2023/09/18 08:12:05;;;;;;;16.45;11.27;;;18.00;99.90;;;;;;4814305;29;20057;-81
2023/09/18 08:14:30;;;;;;;12.40;11.02;;;18.10;99.90;;;;;;4811480;29;20086;-81
2023/09/18 08:16:59;;;;;;;14.98;10.90;;;18.10;99.90;;;;;;4809854;29;20500;-81
2023/09/18 08:19:26;;;;;;;16.48;12.80;;;18.10;99.90;;;;;;4812551;29;20050;-81
2023/09/18 08:21:54;;;;;;;11.80;10.02;;;18.10;99.90;;;;;;4812319;29;20111;-86
2023/09/18 08:24:20;;;;;;;16.10;10.98;;;18.10;99.90;;;;;;4797094;29;20119;-83
2023/09/18 08:26:47;;;;;;;15.30;9.98;;;18.10;99.90;;;;;;4813824;29;20050;-80
2023/09/18 08:29:13;;;;;;;13.43;10.00;;;18.50;99.90;;;;;;4812914;29;20046;-85
2023/09/18 08:31:39;;;;;;;15.82;10.52;;;16.90;99.90;;;;;;4814093;29;20058;-83
2023/09/18 08:34:04;;;;;;;13.10;11.07;;;18.10;99.90;;;;;;4817025;29;20049;-84
2023/09/18 08:36:31;;;;;;;17.08;11.80;;;18.20;99.90;;;;;;4813041;29;20402;-84
2023/09/18 08:38:57;;;;;;;12.45;11.07;;;18.20;99.90;;;;;;4815765;29;20066;-86
2023/09/18 08:41:26;;;;;;;12.25;10.43;;;18.20;99.90;;;;;;4811727;29;20047;-85
2023/09/18 08:43:59;;;;;;;13.15;11.43;;;18.20;99.90;;;;;;4810631;29;20142;-84
2023/09/18 08:46:25;;;;;;;14.93;12.13;;;18.20;99.90;;;;;;4819746;29;20061;-85
2023/09/18 08:48:52;;;;;;;17.00;12.80;;;18.30;99.90;;;;;;4808928;29;20073;-86
2023/09/18 08:51:19;;;;;;;14.82;11.65;;;18.30;99.90;;;;;;4818347;29;20042;-85
2023/09/18 08:53:46;;;;;;;15.32;13.05;;;18.30;99.90;;;;;;4814023;29;20047;-85
2023/09/18 08:56:13;;;;;;;13.75;12.10;;;18.30;99.90;;;;;;4821716;29;20061;-86
2023/09/18 08:58:42;;;;;;;16.05;13.05;;;18.30;99.90;;;;;;4816755;29;20055;-86
2023/09/18 09:01:12;;;;;;;14.65;12.60;;;18.40;99.90;;;;;;4823288;29;20050;-86
2023/09/18 09:03:39;;;;;;;13.85;12.48;;;18.30;99.90;;;;;;4820969;29;20050;-86
2023/09/18 09:06:06;;;;;;;15.75;14.15;;;18.40;99.90;;;;;;4820119;29;20057;-85
2023/09/18 09:08:33;;;;;;;14.32;12.32;;;18.40;99.90;;;;;;4816471;29;20129;-87
2023/09/18 09:10:59;;;;;;;18.60;12.45;;;18.40;99.90;;;;;;4822961;29;20034;-86
2023/09/18 09:13:28;;;;;;;13.85;12.20;;;18.40;99.90;;;;;;4823465;29;20504;-86
2023/09/18 09:15:56;;;;;;;16.25;13.07;;;18.40;99.90;;;;;;4822472;29;20377;-88
2023/09/18 09:18:27;;;;;;;17.33;12.55;;;18.40;99.90;;;;;;4818042;29;20082;-84
2023/09/18 09:20:58;;;;;;;15.73;13.15;;;18.90;99.90;;;;;;4823070;29;20099;-85
2023/09/18 09:23:28;;;;;;;14.38;12.05;;;18.70;99.90;;;;;;4823485;29;20058;-86
2023/09/18 09:26:12;;;;;;;14.25;11.32;;;18.50;99.90;;;;;;4823824;29;20054;-86
2023/09/18 09:28:38;;;;;;;12.90;11.10;;;18.60;99.90;;;;;;4821017;29;20094;-86
2023/09/18 09:31:03;;;;;;;13.98;11.27;;;18.60;99.90;;;;;;4814871;29;20050;-87
2023/09/18 09:33:30;;;;;;;15.27;11.52;;;18.90;99.90;;;;;;4821934;29;20046;-87
2023/09/18 09:35:56;;;;;;;13.25;11.48;;;18.60;99.90;;;;;;4823673;29;20039;-87
2023/09/18 09:38:34;;;;;;;12.93;11.63;;;19.30;99.90;;;;;;4823713;29;20042;-86
2023/09/18 09:41:00;;;;;;;16.40;11.40;;;18.60;99.90;;;;;;4822556;29;20054;-86
2023/09/18 09:43:27;;;;;;;12.45;11.00;;;18.50;99.90;;;;;;4820020;29;20399;-87
2023/09/18 09:46:01;;;;;;;15.82;12.85;;;18.70;99.90;;;;;;4822791;29;20133;-87
2023/09/18 09:48:27;;;;;;;17.27;12.98;;;18.70;99.90;;;;;;4822432;29;20137;-87
2023/09/18 09:50:59;;;;;;;16.95;11.77;;;18.80;99.90;;;;;;4815418;29;20121;-87
2023/09/18 09:53:46;;;;;;;14.57;12.45;;;19.30;99.90;;;;;;4822208;29;20492;-88
2023/09/18 09:56:20;;;;;;;14.15;12.70;;;18.90;99.90;;;;;;4818624;29;20046;-88
2023/09/18 09:59:10;;;;;;;14.13;12.70;;;19.50;99.90;;;;;;4812310;29;20505;-86
2023/09/18 10:01:36;;;;;;;17.33;14.52;;;18.90;99.90;;;;;;4820684;29;20050;-87
2023/09/18 10:04:06;;;;;;;15.52;13.98;;;18.90;99.90;;;;;;4818709;29;20035;-87
2023/09/18 10:06:34;;;;;;;15.18;13.68;;;18.90;99.90;;;;;;4819757;29;20046;-88
2023/09/18 10:09:06;;;;;;;16.08;14.30;;;19.00;99.90;;;;;;4818013;29;20090;-87
2023/09/18 10:11:36;;;;;;;16.40;14.75;;;19.00;99.90;;;;;;4818749;29;20455;-86
2023/09/18 10:14:26;;;;;;;17.27;15.57;;;19.00;99.90;;;;;;4822174;29;20046;-87
2023/09/18 10:16:55;;;;;;;20.42;16.38;;;19.10;99.90;;;;;;4815260;29;20492;-85
2023/09/18 10:19:38;;;;;;;18.40;15.63;;;19.20;99.90;;;;;;4815959;29;20086;-86
2023/09/18 10:22:37;;;;;;;17.50;15.50;;;19.30;99.90;;;;;;4818843;29;20034;-87
2023/09/18 10:25:17;;;;;;;17.85;16.02;;;19.30;99.90;;;;;;4812088;29;20508;-86
2023/09/18 10:27:49;;;;;;;16.25;14.65;;;19.40;99.90;;;;;;4815215;29;20141;-90
2023/09/18 10:30:29;;;;;;;18.77;15.60;;;19.40;99.90;;;;;;4571991;29;10000692;-88
2023/09/18 10:32:57;;;;;;;15.80;14.02;;;19.50;99.90;;;;;;4817024;29;20634;-89
2023/09/18 10:35:23;;;;;;;15.20;13.68;;;19.50;99.90;;;;;;4819830;29;20350;-86
2023/09/18 10:37:51;;;;;;;13.93;12.55;;;19.50;99.90;;;;;;4819476;29;20449;-86
2023/09/18 10:40:17;;;;;;;13.55;12.25;;;19.50;99.90;;;;;;4827266;29;20049;-84
2023/09/18 10:42:46;;;;;;;13.00;11.80;;;19.60;99.90;;;;;;4819719;29;20046;-87
2023/09/18 10:45:12;;;;;;;12.48;11.35;;;20.60;99.90;;;;;;4820040;29;20053;-83
2023/09/18 10:47:45;;;;;;;11.48;10.02;;;20.50;99.90;;;;;;4815507;29;20049;-85
2023/09/18 10:50:11;;;;;;;10.32;9.32;;;19.80;99.90;;;;;;4819672;29;20038;-87
2023/09/18 10:52:43;;;;;;;12.07;9.57;;;19.80;99.90;;;;;;4814579;29;20054;-87
2023/09/18 10:55:12;;;;;;;10.50;8.52;;;19.90;99.90;;;;;;4813996;29;20050;-87
2023/09/18 10:57:49;;;;;;;9.00;8.20;;;20.20;99.90;;;;;;4819930;29;20070;-91
2023/09/18 11:00:16;;;;;;;8.02;7.18;;;20.80;99.90;;;;;;4811698;29;20373;-85
2023/09/18 11:02:44;;;;;;;8.23;6.10;;;20.00;99.90;;;;;;4819376;29;20072;-92
2023/09/18 11:05:10;;;;;;;8.10;5.80;;;20.60;99.90;;;;;;4801355;29;20095;-88
2023/09/18 11:07:35;;;;;;;7.07;5.40;;;20.10;99.90;;;;;;4812427;29;20047;-85
2023/09/18 11:10:27;;;;;;;7.22;5.22;;;20.10;99.90;;;;;;4819400;29;20058;-86
2023/09/18 11:12:54;;;;;;;6.55;5.75;;;20.10;99.90;;;;;;4818906;29;20047;-87
2023/09/18 11:15:30;;;;;;;6.10;5.50;;;20.00;99.90;;;;;;4823750;29;20051;-86
2023/09/18 11:18:01;;;;;;;6.65;5.90;;;20.00;99.90;;;;;;4817815;29;20088;-87
2023/09/18 11:20:27;;;;;;;8.25;5.75;;;19.90;99.90;;;;;;4818469;29;20050;-89
2023/09/18 11:23:12;;;;;;;6.70;5.32;;;20.00;99.90;;;;;;4816964;29;20058;-87
2023/09/18 11:25:41;;;;;;;7.47;5.22;;;20.00;99.90;;;;;;4816928;29;20050;-87
2023/09/18 11:28:08;;;;;;;6.25;4.95;;;20.10;99.90;;;;;;4799875;29;20061;-90
2023/09/18 11:30:38;;;;;;;7.65;4.63;;;20.20;99.90;;;;;;4815177;29;20081;-88
2023/09/18 11:33:05;;;;;;;6.28;4.43;;;20.40;99.90;;;;;;4830961;29;20356;-90
2023/09/18 11:35:38;;;;;;;5.70;5.13;;;20.30;99.90;;;;;;4800662;29;20484;-90
2023/09/18 11:38:07;;;;;;;9.90;4.38;;;20.40;99.90;;;;;;4808794;29;20054;-90
2023/09/18 11:40:38;;;;;;;6.10;5.15;;;20.50;99.90;;;;;;4807849;29;20155;-89
2023/09/18 11:43:23;;;;;;;6.15;4.50;;;20.60;99.90;;;;;;4817775;29;20080;-88
2023/09/18 11:45:51;;;;;;;7.43;4.22;;;20.60;99.90;;;;;;4818995;29;20050;-90
2023/09/18 11:48:18;;;;;;;8.35;4.15;;;20.70;99.90;;;;;;4806607;29;20126;-87
2023/09/18 11:50:44;;;;;;;4.35;3.95;;;20.90;99.90;;;;;;4819439;29;20407;-87
2023/09/18 11:53:12;;;;;;;6.32;4.35;;;20.80;99.90;;;;;;4807131;29;20046;-87
2023/09/18 11:55:42;;;;;;;4.50;4.00;;;20.80;99.90;;;;;;4816820;29;20066;-87
2023/09/18 11:58:09;;;;;;;9.02;4.38;;;20.80;99.90;;;;;;4814287;29;20527;-86
2023/09/18 12:00:45;;;;;;;5.38;3.85;;;20.90;99.90;;;;;;4814714;29;20069;-86
2023/09/18 12:03:23;;;;;;;7.22;3.67;;;21.00;99.90;;;;;;4819277;29;20058;-89
2023/09/18 12:05:56;;;;;;;5.53;3.50;;;21.10;99.90;;;;;;4796885;29;20130;-91
2023/09/18 12:08:26;;;;;;;5.70;3.65;;;21.20;99.90;;;;;;4815803;29;20093;-86
2023/09/18 12:10:52;;;;;;;3.95;3.50;;;21.20;99.90;;;;;;4801515;29;20045;-86
2023/09/18 12:13:18;;;;;;;8.73;4.25;;;21.20;99.90;;;;;;4815164;29;20061;-86
2023/09/18 12:15:44;;;;;;;5.32;3.63;;;21.20;99.90;;;;;;4819565;29;20038;-88
2023/09/18 12:18:13;;;;;;;4.05;3.65;;;21.20;99.90;;;;;;4816491;29;20125;-89
2023/09/18 12:20:45;;;;;;;6.53;3.53;;;21.20;99.90;;;;;;4803320;29;20053;-88
2023/09/18 12:23:11;;;;;;;5.60;3.90;;;21.20;99.90;;;;;;4831984;29;20062;-88
2023/09/18 12:25:37;;;;;;;9.70;4.00;;;21.30;99.90;;;;;;4819895;29;20046;-87
2023/09/18 12:28:06;;;;;;;3.78;3.30;;;21.40;99.90;;;;;;4795447;29;20074;-87
2023/09/18 12:30:33;;;;;;;3.53;3.22;;;21.40;99.90;;;;;;4819256;29;20047;-88
2023/09/18 12:33:03;;;;;;;4.65;3.25;;;21.40;99.90;;;;;;4820877;29;20050;-87
2023/09/18 12:35:30;;;;;;;5.63;3.58;;;21.30;99.90;;;;;;4823119;29;20058;-87